This is the latest recevied weather packets stored in our database for station/object W4EDL-13. If no packets are shown the sender has not sent any weather packets the latest 10 day(s).
| Time | Temp. | Humidity | Pressure | Rain* | Wind** | Luminosity | Snow |
|---|---|---|---|---|---|---|---|
| 1777489644 | 32.22° C | 46% | 1004.9 hPa | - | - | - | - |
| 1777489043 | 32.22° C | 46% | 1005.6 hPa | - | - | - | - |
| 1777488443 | 31.67° C | 46% | 1005.6 hPa | - | - | - | - |
| 1777487842 | 30.56° C | 49% | 1005.6 hPa | - | - | - | - |
| 1777487242 | 29.44° C | 50% | 1005.6 hPa | - | - | - | - |
| 1777486641 | 30.56° C | 49% | 1005.6 hPa | - | - | - | - |
| 1777486040 | 32.22° C | 45% | 1005.6 hPa | - | - | - | - |
| 1777485440 | 29.44° C | 50% | 1005.9 hPa | - | - | - | - |
| 1777484839 | 31.11° C | 48% | 1006.3 hPa | - | - | - | - |
| 1777484238 | 31.67° C | 48% | 1006.3 hPa | - | - | - | - |
| 1777483638 | 31.67° C | 47% | 1006.3 hPa | - | - | - | - |
| 1777483037 | 32.22° C | 46% | 1006.3 hPa | - | - | - | - |
| 1777482436 | 31.11° C | 48% | 1006.6 hPa | - | - | - | - |
| 1777481836 | 30.56° C | 50% | 1006.6 hPa | - | - | - | - |
| 1777481235 | 30° C | 54% | 1007.3 hPa | - | - | - | - |
| 1777480635 | 29.44° C | 57% | 1007.3 hPa | - | - | - | - |
| 1777480034 | 29.44° C | 57% | 1007.6 hPa | - | - | - | - |
| 1777479434 | 30.56° C | 57% | 1007.6 hPa | - | - | - | - |
| 1777478833 | 28.89° C | 59% | 1008 hPa | - | - | - | - |
| 1777478232 | 28.33° C | 62% | 1008.3 hPa | - | - | - | - |
| 1777477632 | 29.44° C | 55% | 1008.6 hPa | - | - | - | - |
| 1777477031 | 30° C | 54% | 1008.6 hPa | - | - | - | - |
| 1777476431 | 31.67° C | 44% | 1008.6 hPa | - | - | - | - |
| 1777475831 | 30.56° C | 51% | 1008.6 hPa | - | - | - | - |
| 1777475230 | 30° C | 52% | 1008.6 hPa | - | - | - | - |
* Rain since midnight (hover to see other rain measurements)
** Current wind speed in m/s (hover to see current wind gust speed)